sensor_id;sensor_type;location;lat;lon;timestamp;temperature;humidity
4312;DHT22;2169;49.086;9.284;2023-02-20T00:00:10;9.90;70.30
4312;DHT22;2169;49.086;9.284;2023-02-20T00:02:42;9.90;70.30
4312;DHT22;2169;49.086;9.284;2023-02-20T00:05:11;9.90;70.20
4312;DHT22;2169;49.086;9.284;2023-02-20T00:07:39;9.90;70.30
4312;DHT22;2169;49.086;9.284;2023-02-20T00:10:06;9.90;70.20
4312;DHT22;2169;49.086;9.284;2023-02-20T00:12:33;9.90;70.30
4312;DHT22;2169;49.086;9.284;2023-02-20T00:15:00;9.90;70.30
4312;DHT22;2169;49.086;9.284;2023-02-20T00:17:27;9.90;70.30
4312;DHT22;2169;49.086;9.284;2023-02-20T00:19:55;9.80;70.20
4312;DHT22;2169;49.086;9.284;2023-02-20T00:22:22;9.80;70.20
4312;DHT22;2169;49.086;9.284;2023-02-20T00:24:49;9.80;70.20
4312;DHT22;2169;49.086;9.284;2023-02-20T00:27:16;9.80;70.20
4312;DHT22;2169;49.086;9.284;2023-02-20T00:29:43;9.80;70.20
4312;DHT22;2169;49.086;9.284;2023-02-20T00:32:10;9.80;70.20
4312;DHT22;2169;49.086;9.284;2023-02-20T00:34:37;9.80;70.20
4312;DHT22;2169;49.086;9.284;2023-02-20T00:37:05;9.80;70.30
4312;DHT22;2169;49.086;9.284;2023-02-20T00:39:33;9.80;70.20
4312;DHT22;2169;49.086;9.284;2023-02-20T00:42:00;9.80;70.20
4312;DHT22;2169;49.086;9.284;2023-02-20T00:44:26;9.80;70.90
4312;DHT22;2169;49.086;9.284;2023-02-20T00:46:53;9.80;70.30
4312;DHT22;2169;49.086;9.284;2023-02-20T00:49:20;9.80;70.30
4312;DHT22;2169;49.086;9.284;2023-02-20T00:51:47;9.80;70.40
4312;DHT22;2169;49.086;9.284;2023-02-20T00:54:15;9.70;70.30
4312;DHT22;2169;49.086;9.284;2023-02-20T00:56:42;9.70;70.30
4312;DHT22;2169;49.086;9.284;2023-02-20T00:59:09;9.70;70.30
4312;DHT22;2169;49.086;9.284;2023-02-20T01:01:36;9.70;70.40
4312;DHT22;2169;49.086;9.284;2023-02-20T01:04:02;9.70;70.40
4312;DHT22;2169;49.086;9.284;2023-02-20T01:06:29;9.70;70.40
4312;DHT22;2169;49.086;9.284;2023-02-20T01:08:56;9.70;70.40
4312;DHT22;2169;49.086;9.284;2023-02-20T01:11:24;9.60;70.20
4312;DHT22;2169;49.086;9.284;2023-02-20T01:13:51;9.60;70.30
4312;DHT22;2169;49.086;9.284;2023-02-20T01:16:17;9.60;70.20
4312;DHT22;2169;49.086;9.284;2023-02-20T01:18:48;9.50;70.20
4312;DHT22;2169;49.086;9.284;2023-02-20T01:21:15;9.50;70.20
4312;DHT22;2169;49.086;9.284;2023-02-20T01:23:42;9.50;70.20
4312;DHT22;2169;49.086;9.284;2023-02-20T01:26:08;9.50;70.20
4312;DHT22;2169;49.086;9.284;2023-02-20T01:28:36;9.40;70.10
4312;DHT22;2169;49.086;9.284;2023-02-20T01:31:03;9.40;70.10
4312;DHT22;2169;49.086;9.284;2023-02-20T01:33:30;9.40;70.10
4312;DHT22;2169;49.086;9.284;2023-02-20T01:35:57;9.30;70.00
4312;DHT22;2169;49.086;9.284;2023-02-20T01:38:24;9.30;70.10
4312;DHT22;2169;49.086;9.284;2023-02-20T01:40:50;9.30;70.10
4312;DHT22;2169;49.086;9.284;2023-02-20T01:43:17;9.30;70.10
4312;DHT22;2169;49.086;9.284;2023-02-20T01:45:45;9.20;70.00
4312;DHT22;2169;49.086;9.284;2023-02-20T01:48:19;9.20;70.00
4312;DHT22;2169;49.086;9.284;2023-02-20T01:50:47;9.20;70.10
4312;DHT22;2169;49.086;9.284;2023-02-20T01:53:19;9.10;70.00
4312;DHT22;2169;49.086;9.284;2023-02-20T01:55:49;9.10;70.00
4312;DHT22;2169;49.086;9.284;2023-02-20T01:58:20;9.00;69.90
4312;DHT22;2169;49.086;9.284;2023-02-20T02:00:50;9.00;69.80
4312;DHT22;2169;49.086;9.284;2023-02-20T02:03:19;8.90;69.70
4312;DHT22;2169;49.086;9.284;2023-02-20T02:05:52;8.90;69.70
4312;DHT22;2169;49.086;9.284;2023-02-20T02:08:21;8.90;69.60
4312;DHT22;2169;49.086;9.284;2023-02-20T02:10:53;8.80;69.60
4312;DHT22;2169;49.086;9.284;2023-02-20T02:13:22;8.80;69.70
4312;DHT22;2169;49.086;9.284;2023-02-20T02:15:51;8.70;69.60
4312;DHT22;2169;49.086;9.284;2023-02-20T02:21:59;8.70;69.50
4312;DHT22;2169;49.086;9.284;2023-02-20T02:25:04;8.60;69.40
4312;DHT22;2169;49.086;9.284;2023-02-20T02:30:56;8.50;69.30
4312;DHT22;2169;49.086;9.284;2023-02-20T02:34:03;8.40;69.10
4312;DHT22;2169;49.086;9.284;2023-02-20T02:36:44;8.30;69.10
4312;DHT22;2169;49.086;9.284;2023-02-20T02:39:17;8.20;69.10
4312;DHT22;2169;49.086;9.284;2023-02-20T02:41:51;8.20;69.30
4312;DHT22;2169;49.086;9.284;2023-02-20T02:44:24;8.20;69.30
4312;DHT22;2169;49.086;9.284;2023-02-20T02:46:57;8.10;69.20
4312;DHT22;2169;49.086;9.284;2023-02-20T02:49:29;8.10;69.20
4312;DHT22;2169;49.086;9.284;2023-02-20T02:52:00;8.10;69.30
4312;DHT22;2169;49.086;9.284;2023-02-20T02:54:28;8.00;69.20
4312;DHT22;2169;49.086;9.284;2023-02-20T02:57:18;8.00;69.90
4312;DHT22;2169;49.086;9.284;2023-02-20T02:59:46;8.00;69.20
4312;DHT22;2169;49.086;9.284;2023-02-20T03:02:17;7.90;69.20
4312;DHT22;2169;49.086;9.284;2023-02-20T03:04:46;7.90;69.20
4312;DHT22;2169;49.086;9.284;2023-02-20T03:07:16;7.80;69.20
4312;DHT22;2169;49.086;9.284;2023-02-20T03:09:49;7.80;69.30
4312;DHT22;2169;49.086;9.284;2023-02-20T03:12:18;7.80;69.30
4312;DHT22;2169;49.086;9.284;2023-02-20T03:14:50;7.70;69.30
4312;DHT22;2169;49.086;9.284;2023-02-20T03:17:39;7.70;69.30
4312;DHT22;2169;49.086;9.284;2023-02-20T03:20:10;7.70;69.40
4312;DHT22;2169;49.086;9.284;2023-02-20T03:22:43;7.70;69.40
4312;DHT22;2169;49.086;9.284;2023-02-20T03:25:14;7.70;69.50
4312;DHT22;2169;49.086;9.284;2023-02-20T03:27:47;7.60;69.50
4312;DHT22;2169;49.086;9.284;2023-02-20T03:30:18;7.60;69.50
4312;DHT22;2169;49.086;9.284;2023-02-20T03:32:46;7.60;69.50
4312;DHT22;2169;49.086;9.284;2023-02-20T03:35:34;7.50;69.40
4312;DHT22;2169;49.086;9.284;2023-02-20T03:38:21;7.50;69.50
4312;DHT22;2169;49.086;9.284;2023-02-20T03:41:07;7.50;69.50
4312;DHT22;2169;49.086;9.284;2023-02-20T03:43:52;7.40;69.40
4312;DHT22;2169;49.086;9.284;2023-02-20T03:46:21;7.40;69.50
4312;DHT22;2169;49.086;9.284;2023-02-20T03:48:52;7.40;69.60
4312;DHT22;2169;49.086;9.284;2023-02-20T03:51:20;7.40;69.70
4312;DHT22;2169;49.086;9.284;2023-02-20T03:54:06;7.30;69.70
4312;DHT22;2169;49.086;9.284;2023-02-20T03:56:36;7.30;69.80
4312;DHT22;2169;49.086;9.284;2023-02-20T03:59:08;7.30;69.80
4312;DHT22;2169;49.086;9.284;2023-02-20T04:01:38;7.30;69.90
4312;DHT22;2169;49.086;9.284;2023-02-20T04:04:09;7.30;69.90
4312;DHT22;2169;49.086;9.284;2023-02-20T04:06:39;7.30;69.90
4312;DHT22;2169;49.086;9.284;2023-02-20T04:09:11;7.20;69.80
4312;DHT22;2169;49.086;9.284;2023-02-20T04:11:40;7.20;69.90
4312;DHT22;2169;49.086;9.284;2023-02-20T04:14:10;7.20;69.90
4312;DHT22;2169;49.086;9.284;2023-02-20T04:16:43;7.20;70.00
4312;DHT22;2169;49.086;9.284;2023-02-20T04:19:11;7.10;69.90
4312;DHT22;2169;49.086;9.284;2023-02-20T04:21:40;7.00;69.70
4312;DHT22;2169;49.086;9.284;2023-02-20T04:24:11;7.00;69.80
4312;DHT22;2169;49.086;9.284;2023-02-20T04:26:39;7.00;69.80
4312;DHT22;2169;49.086;9.284;2023-02-20T04:29:06;6.90;69.70
4312;DHT22;2169;49.086;9.284;2023-02-20T04:31:33;6.90;69.70
4312;DHT22;2169;49.086;9.284;2023-02-20T04:33:59;6.80;69.60
4312;DHT22;2169;49.086;9.284;2023-02-20T04:36:26;6.80;69.70
4312;DHT22;2169;49.086;9.284;2023-02-20T04:38:53;6.80;69.70
4312;DHT22;2169;49.086;9.284;2023-02-20T04:41:21;6.70;69.70
4312;DHT22;2169;49.086;9.284;2023-02-20T04:43:48;6.70;69.80
4312;DHT22;2169;49.086;9.284;2023-02-20T04:46:34;6.70;69.90
4312;DHT22;2169;49.086;9.284;2023-02-20T04:49:01;6.70;70.00
4312;DHT22;2169;49.086;9.284;2023-02-20T04:51:28;6.60;69.90
4312;DHT22;2169;49.086;9.284;2023-02-20T04:53:54;6.60;69.90
4312;DHT22;2169;49.086;9.284;2023-02-20T04:56:23;6.60;70.00
4312;DHT22;2169;49.086;9.284;2023-02-20T04:58:49;6.60;70.00
4312;DHT22;2169;49.086;9.284;2023-02-20T05:01:16;6.60;70.00
4312;DHT22;2169;49.086;9.284;2023-02-20T05:03:43;6.50;70.00
4312;DHT22;2169;49.086;9.284;2023-02-20T05:06:10;6.50;69.90
4312;DHT22;2169;49.086;9.284;2023-02-20T05:08:37;6.50;70.00
4312;DHT22;2169;49.086;9.284;2023-02-20T05:11:04;6.50;70.10
4312;DHT22;2169;49.086;9.284;2023-02-20T05:13:32;6.40;70.10
4312;DHT22;2169;49.086;9.284;2023-02-20T05:15:58;6.40;70.20
4312;DHT22;2169;49.086;9.284;2023-02-20T05:18:25;6.40;70.90
4312;DHT22;2169;49.086;9.284;2023-02-20T05:20:53;6.40;70.20
4312;DHT22;2169;49.086;9.284;2023-02-20T05:23:37;6.40;70.20
4312;DHT22;2169;49.086;9.284;2023-02-20T05:26:08;6.40;70.20
4312;DHT22;2169;49.086;9.284;2023-02-20T05:28:36;6.30;70.10
4312;DHT22;2169;49.086;9.284;2023-02-20T05:31:04;6.30;70.10
4312;DHT22;2169;49.086;9.284;2023-02-20T05:33:31;6.30;70.20
4312;DHT22;2169;49.086;9.284;2023-02-20T05:35:58;6.30;70.20
4312;DHT22;2169;49.086;9.284;2023-02-20T05:38:25;6.20;70.10
4312;DHT22;2169;49.086;9.284;2023-02-20T05:40:52;6.20;70.10
4312;DHT22;2169;49.086;9.284;2023-02-20T05:43:19;6.20;70.20
4312;DHT22;2169;49.086;9.284;2023-02-20T05:45:47;6.10;70.10
4312;DHT22;2169;49.086;9.284;2023-02-20T05:48:14;6.10;70.10
4312;DHT22;2169;49.086;9.284;2023-02-20T05:50:41;6.00;69.90
4312;DHT22;2169;49.086;9.284;2023-02-20T05:53:07;6.00;69.90
4312;DHT22;2169;49.086;9.284;2023-02-20T05:55:34;6.00;70.00
4312;DHT22;2169;49.086;9.284;2023-02-20T05:58:01;5.90;70.00
4312;DHT22;2169;49.086;9.284;2023-02-20T06:00:28;5.90;70.00
4312;DHT22;2169;49.086;9.284;2023-02-20T06:02:56;5.90;70.10
4312;DHT22;2169;49.086;9.284;2023-02-20T06:05:22;5.90;70.10
4312;DHT22;2169;49.086;9.284;2023-02-20T06:07:51;5.90;70.20
4312;DHT22;2169;49.086;9.284;2023-02-20T06:10:18;5.90;70.40
4312;DHT22;2169;49.086;9.284;2023-02-20T06:12:45;5.90;70.80
4312;DHT22;2169;49.086;9.284;2023-02-20T06:15:12;5.90;70.40
4312;DHT22;2169;49.086;9.284;2023-02-20T06:17:38;5.80;70.40
4312;DHT22;2169;49.086;9.284;2023-02-20T06:20:08;5.80;70.40
4312;DHT22;2169;49.086;9.284;2023-02-20T06:22:35;5.80;70.40
4312;DHT22;2169;49.086;9.284;2023-02-20T06:25:01;5.80;70.40
4312;DHT22;2169;49.086;9.284;2023-02-20T06:27:28;5.80;70.40
4312;DHT22;2169;49.086;9.284;2023-02-20T06:29:55;5.70;70.40
4312;DHT22;2169;49.086;9.284;2023-02-20T06:32:22;5.70;70.50
4312;DHT22;2169;49.086;9.284;2023-02-20T06:34:49;5.70;70.50
4312;DHT22;2169;49.086;9.284;2023-02-20T06:37:17;5.70;70.50
4312;DHT22;2169;49.086;9.284;2023-02-20T06:39:44;5.60;70.50
4312;DHT22;2169;49.086;9.284;2023-02-20T06:42:12;5.60;70.60
4312;DHT22;2169;49.086;9.284;2023-02-20T06:44:39;5.60;70.70
4312;DHT22;2169;49.086;9.284;2023-02-20T06:47:06;5.60;70.70
4312;DHT22;2169;49.086;9.284;2023-02-20T06:49:33;5.60;70.80
4312;DHT22;2169;49.086;9.284;2023-02-20T06:52:00;5.60;70.80
4312;DHT22;2169;49.086;9.284;2023-02-20T06:54:28;5.50;70.70
4312;DHT22;2169;49.086;9.284;2023-02-20T06:56:55;5.50;70.80
4312;DHT22;2169;49.086;9.284;2023-02-20T06:59:22;5.60;70.80
4312;DHT22;2169;49.086;9.284;2023-02-20T07:01:49;5.50;70.80
4312;DHT22;2169;49.086;9.284;2023-02-20T07:04:18;5.50;70.80
4312;DHT22;2169;49.086;9.284;2023-02-20T07:06:45;5.50;71.60
4312;DHT22;2169;49.086;9.284;2023-02-20T07:09:12;5.50;71.00
4312;DHT22;2169;49.086;9.284;2023-02-20T07:11:41;5.50;71.10
4312;DHT22;2169;49.086;9.284;2023-02-20T07:14:08;5.50;71.10
4312;DHT22;2169;49.086;9.284;2023-02-20T07:16:35;5.60;71.30
4312;DHT22;2169;49.086;9.284;2023-02-20T07:19:02;5.60;71.40
4312;DHT22;2169;49.086;9.284;2023-02-20T07:21:29;5.60;71.50
4312;DHT22;2169;49.086;9.284;2023-02-20T07:23:55;5.70;71.60
4312;DHT22;2169;49.086;9.284;2023-02-20T07:26:24;5.70;71.60
4312;DHT22;2169;49.086;9.284;2023-02-20T07:28:53;5.80;71.90
4312;DHT22;2169;49.086;9.284;2023-02-20T07:31:20;5.80;72.00
4312;DHT22;2169;49.086;9.284;2023-02-20T07:33:46;5.80;72.00
4312;DHT22;2169;49.086;9.284;2023-02-20T07:36:14;5.90;72.10
4312;DHT22;2169;49.086;9.284;2023-02-20T07:38:41;5.90;72.20
4312;DHT22;2169;49.086;9.284;2023-02-20T07:41:08;5.90;72.20
4312;DHT22;2169;49.086;9.284;2023-02-20T07:43:35;6.00;72.40
4312;DHT22;2169;49.086;9.284;2023-02-20T07:46:03;6.00;72.50
4312;DHT22;2169;49.086;9.284;2023-02-20T07:48:30;6.10;72.50
4312;DHT22;2169;49.086;9.284;2023-02-20T07:50:59;6.10;72.70
4312;DHT22;2169;49.086;9.284;2023-02-20T07:53:25;6.20;72.90
4312;DHT22;2169;49.086;9.284;2023-02-20T07:55:52;6.20;73.00
4312;DHT22;2169;49.086;9.284;2023-02-20T07:58:19;6.30;73.10
4312;DHT22;2169;49.086;9.284;2023-02-20T08:00:46;6.30;73.20
4312;DHT22;2169;49.086;9.284;2023-02-20T08:03:14;6.40;73.30
4312;DHT22;2169;49.086;9.284;2023-02-20T08:05:41;6.40;73.30
4312;DHT22;2169;49.086;9.284;2023-02-20T08:08:07;6.50;73.50
4312;DHT22;2169;49.086;9.284;2023-02-20T08:10:34;6.50;73.50
4312;DHT22;2169;49.086;9.284;2023-02-20T08:13:01;6.60;73.60
4312;DHT22;2169;49.086;9.284;2023-02-20T08:15:28;6.60;74.30
4312;DHT22;2169;49.086;9.284;2023-02-20T08:17:54;6.70;73.70
4312;DHT22;2169;49.086;9.284;2023-02-20T08:20:22;6.70;73.80
4312;DHT22;2169;49.086;9.284;2023-02-20T08:22:50;6.80;73.90
4312;DHT22;2169;49.086;9.284;2023-02-20T08:25:17;6.80;74.00
4312;DHT22;2169;49.086;9.284;2023-02-20T08:27:45;6.80;73.90
4312;DHT22;2169;49.086;9.284;2023-02-20T08:30:15;6.90;74.00
4312;DHT22;2169;49.086;9.284;2023-02-20T08:32:42;6.90;74.00
4312;DHT22;2169;49.086;9.284;2023-02-20T08:35:09;7.00;74.10
4312;DHT22;2169;49.086;9.284;2023-02-20T08:37:37;7.10;74.20
4312;DHT22;2169;49.086;9.284;2023-02-20T08:40:04;7.10;74.10
4312;DHT22;2169;49.086;9.284;2023-02-20T08:42:33;7.20;74.20
4312;DHT22;2169;49.086;9.284;2023-02-20T08:45:00;7.30;74.30
4312;DHT22;2169;49.086;9.284;2023-02-20T08:47:27;7.40;74.40
4312;DHT22;2169;49.086;9.284;2023-02-20T08:49:54;7.50;74.50
4312;DHT22;2169;49.086;9.284;2023-02-20T08:52:20;7.60;74.60
4312;DHT22;2169;49.086;9.284;2023-02-20T08:54:49;7.70;74.70
4312;DHT22;2169;49.086;9.284;2023-02-20T08:57:16;7.80;74.80
4312;DHT22;2169;49.086;9.284;2023-02-20T08:59:44;7.90;75.00
4312;DHT22;2169;49.086;9.284;2023-02-20T09:02:16;8.10;75.20
4312;DHT22;2169;49.086;9.284;2023-02-20T09:04:43;8.20;75.20
4312;DHT22;2169;49.086;9.284;2023-02-20T09:07:11;8.40;75.30
4312;DHT22;2169;49.086;9.284;2023-02-20T09:09:38;8.50;75.30
4312;DHT22;2169;49.086;9.284;2023-02-20T09:12:07;8.70;75.30
4312;DHT22;2169;49.086;9.284;2023-02-20T09:14:34;8.80;75.20
4312;DHT22;2169;49.086;9.284;2023-02-20T09:17:01;9.00;75.10
4312;DHT22;2169;49.086;9.284;2023-02-20T09:19:28;9.10;74.90
4312;DHT22;2169;49.086;9.284;2023-02-20T09:21:54;9.30;74.80
4312;DHT22;2169;49.086;9.284;2023-02-20T09:24:21;9.40;74.60
4312;DHT22;2169;49.086;9.284;2023-02-20T09:26:48;9.50;74.10
4312;DHT22;2169;49.086;9.284;2023-02-20T09:29:16;9.60;73.90
4312;DHT22;2169;49.086;9.284;2023-02-20T09:31:43;9.70;73.70
4312;DHT22;2169;49.086;9.284;2023-02-20T09:34:09;9.80;73.50
4312;DHT22;2169;49.086;9.284;2023-02-20T09:36:36;9.90;73.30
4312;DHT22;2169;49.086;9.284;2023-02-20T09:39:03;10.00;72.00
4312;DHT22;2169;49.086;9.284;2023-02-20T09:41:48;10.10;71.70
4312;DHT22;2169;49.086;9.284;2023-02-20T09:44:23;10.20;71.40
4312;DHT22;2169;49.086;9.284;2023-02-20T09:46:52;10.30;71.30
4312;DHT22;2169;49.086;9.284;2023-02-20T09:49:24;10.30;71.00
4312;DHT22;2169;49.086;9.284;2023-02-20T09:51:54;10.40;70.80
4312;DHT22;2169;49.086;9.284;2023-02-20T09:54:23;10.40;70.50
4312;DHT22;2169;49.086;9.284;2023-02-20T09:56:54;10.50;70.40
4312;DHT22;2169;49.086;9.284;2023-02-20T09:59:27;10.60;70.20
4312;DHT22;2169;49.086;9.284;2023-02-20T10:01:57;10.60;70.00
4312;DHT22;2169;49.086;9.284;2023-02-20T10:04:29;10.70;69.70
4312;DHT22;2169;49.086;9.284;2023-02-20T10:07:03;10.80;69.70
4312;DHT22;2169;49.086;9.284;2023-02-20T10:09:32;10.80;69.40
4312;DHT22;2169;49.086;9.284;2023-02-20T10:12:12;10.90;69.20
4312;DHT22;2169;49.086;9.284;2023-02-20T10:15:10;11.00;69.10
4312;DHT22;2169;49.086;9.284;2023-02-20T10:17:46;11.10;68.90
4312;DHT22;2169;49.086;9.284;2023-02-20T10:20:21;11.20;68.80
4312;DHT22;2169;49.086;9.284;2023-02-20T10:22:54;11.20;68.50
4312;DHT22;2169;49.086;9.284;2023-02-20T10:25:25;11.30;68.30
4312;DHT22;2169;49.086;9.284;2023-02-20T10:27:56;11.40;68.10
4312;DHT22;2169;49.086;9.284;2023-02-20T10:30:29;11.40;68.00
4312;DHT22;2169;49.086;9.284;2023-02-20T10:33:02;11.50;67.80
4312;DHT22;2169;49.086;9.284;2023-02-20T10:35:35;11.60;67.70
4312;DHT22;2169;49.086;9.284;2023-02-20T10:38:07;11.80;67.60
4312;DHT22;2169;49.086;9.284;2023-02-20T10:40:37;11.80;67.10
4312;DHT22;2169;49.086;9.284;2023-02-20T10:43:11;11.90;66.60
4312;DHT22;2169;49.086;9.284;2023-02-20T10:45:48;12.00;65.90
4312;DHT22;2169;49.086;9.284;2023-02-20T10:48:17;12.00;65.40
4312;DHT22;2169;49.086;9.284;2023-02-20T10:50:48;12.10;65.20
4312;DHT22;2169;49.086;9.284;2023-02-20T10:53:22;12.10;64.60
4312;DHT22;2169;49.086;9.284;2023-02-20T10:55:55;12.20;64.30
4312;DHT22;2169;49.086;9.284;2023-02-20T10:58:28;12.20;64.00
4312;DHT22;2169;49.086;9.284;2023-02-20T11:00:59;12.20;63.70
4312;DHT22;2169;49.086;9.284;2023-02-20T11:03:33;12.30;63.60
4312;DHT22;2169;49.086;9.284;2023-02-20T11:06:03;12.40;63.50
4312;DHT22;2169;49.086;9.284;2023-02-20T11:08:31;12.40;63.30
4312;DHT22;2169;49.086;9.284;2023-02-20T11:11:05;12.40;62.80
4312;DHT22;2169;49.086;9.284;2023-02-20T11:13:35;12.50;62.60
4312;DHT22;2169;49.086;9.284;2023-02-20T11:16:03;12.50;62.10
4312;DHT22;2169;49.086;9.284;2023-02-20T11:18:32;12.60;61.90
4312;DHT22;2169;49.086;9.284;2023-02-20T11:21:00;12.60;61.50
4312;DHT22;2169;49.086;9.284;2023-02-20T11:23:40;12.60;60.90
4312;DHT22;2169;49.086;9.284;2023-02-20T11:26:28;12.70;60.80
4312;DHT22;2169;49.086;9.284;2023-02-20T11:28:59;12.70;60.60
4312;DHT22;2169;49.086;9.284;2023-02-20T11:31:28;12.70;60.70
4312;DHT22;2169;49.086;9.284;2023-02-20T11:33:55;12.80;60.60
4312;DHT22;2169;49.086;9.284;2023-02-20T11:36:24;12.90;60.30
4312;DHT22;2169;49.086;9.284;2023-02-20T11:38:57;12.90;59.90
4312;DHT22;2169;49.086;9.284;2023-02-20T11:41:31;12.90;59.40
4312;DHT22;2169;49.086;9.284;2023-02-20T11:44:24;12.90;59.10
4312;DHT22;2169;49.086;9.284;2023-02-20T11:47:13;13.00;59.00
4312;DHT22;2169;49.086;9.284;2023-02-20T11:49:42;13.00;58.70
4312;DHT22;2169;49.086;9.284;2023-02-20T11:52:15;13.00;58.90
4312;DHT22;2169;49.086;9.284;2023-02-20T11:54:42;13.10;58.80
4312;DHT22;2169;49.086;9.284;2023-02-20T11:57:20;13.00;58.70
4312;DHT22;2169;49.086;9.284;2023-02-20T11:59:50;13.10;58.80
4312;DHT22;2169;49.086;9.284;2023-02-20T12:02:26;13.10;58.90
4312;DHT22;2169;49.086;9.284;2023-02-20T12:05:04;13.20;58.80
4312;DHT22;2169;49.086;9.284;2023-02-20T12:07:34;13.30;58.70
4312;DHT22;2169;49.086;9.284;2023-02-20T12:10:10;13.30;58.30
4312;DHT22;2169;49.086;9.284;2023-02-20T12:12:40;13.40;58.10
4312;DHT22;2169;49.086;9.284;2023-02-20T12:15:12;13.40;57.70
4312;DHT22;2169;49.086;9.284;2023-02-20T12:17:47;13.40;57.80
4312;DHT22;2169;49.086;9.284;2023-02-20T12:20:21;13.50;57.80
4312;DHT22;2169;49.086;9.284;2023-02-20T12:22:53;13.50;57.80
4312;DHT22;2169;49.086;9.284;2023-02-20T12:25:26;13.60;57.40
4312;DHT22;2169;49.086;9.284;2023-02-20T12:28:09;13.60;57.00
4312;DHT22;2169;49.086;9.284;2023-02-20T12:30:58;13.60;56.80
4312;DHT22;2169;49.086;9.284;2023-02-20T12:33:50;13.70;57.40
4312;DHT22;2169;49.086;9.284;2023-02-20T12:36:28;13.70;56.80
4312;DHT22;2169;49.086;9.284;2023-02-20T12:38:57;13.80;56.70
4312;DHT22;2169;49.086;9.284;2023-02-20T12:41:46;13.80;56.60
4312;DHT22;2169;49.086;9.284;2023-02-20T12:44:32;13.90;57.20
4312;DHT22;2169;49.086;9.284;2023-02-20T12:47:07;13.90;56.50
4312;DHT22;2169;49.086;9.284;2023-02-20T12:49:56;13.90;56.30
4312;DHT22;2169;49.086;9.284;2023-02-20T12:52:39;14.00;56.20
4312;DHT22;2169;49.086;9.284;2023-02-20T12:55:19;14.00;55.90
4312;DHT22;2169;49.086;9.284;2023-02-20T12:57:57;14.00;55.80
4312;DHT22;2169;49.086;9.284;2023-02-20T13:00:31;14.00;55.80
4312;DHT22;2169;49.086;9.284;2023-02-20T13:03:05;14.10;55.80
4312;DHT22;2169;49.086;9.284;2023-02-20T13:05:36;14.10;55.70
4312;DHT22;2169;49.086;9.284;2023-02-20T13:08:08;14.10;55.50
4312;DHT22;2169;49.086;9.284;2023-02-20T13:10:44;14.10;55.50
4312;DHT22;2169;49.086;9.284;2023-02-20T13:13:12;14.20;55.50
4312;DHT22;2169;49.086;9.284;2023-02-20T13:15:47;14.20;55.20
4312;DHT22;2169;49.086;9.284;2023-02-20T13:18:21;14.20;55.20
4312;DHT22;2169;49.086;9.284;2023-02-20T13:20:52;14.20;55.10
4312;DHT22;2169;49.086;9.284;2023-02-20T13:23:29;14.20;55.10
4312;DHT22;2169;49.086;9.284;2023-02-20T13:25:57;14.30;55.10
4312;DHT22;2169;49.086;9.284;2023-02-20T13:28:35;14.20;54.80
4312;DHT22;2169;49.086;9.284;2023-02-20T13:31:19;14.30;54.60
4312;DHT22;2169;49.086;9.284;2023-02-20T13:33:47;14.30;54.50
4312;DHT22;2169;49.086;9.284;2023-02-20T13:39:37;14.30;54.60
4312;DHT22;2169;49.086;9.284;2023-02-20T13:42:25;14.30;54.70
4312;DHT22;2169;49.086;9.284;2023-02-20T13:44:52;14.30;54.80
4312;DHT22;2169;49.086;9.284;2023-02-20T13:47:34;14.30;54.70
4312;DHT22;2169;49.086;9.284;2023-02-20T13:52:46;14.40;54.80
4312;DHT22;2169;49.086;9.284;2023-02-20T13:55:19;14.40;54.50
4312;DHT22;2169;49.086;9.284;2023-02-20T13:57:47;14.40;54.40
4312;DHT22;2169;49.086;9.284;2023-02-20T14:00:26;14.40;54.40
4312;DHT22;2169;49.086;9.284;2023-02-20T14:02:54;14.40;54.30
4312;DHT22;2169;49.086;9.284;2023-02-20T14:05:23;14.40;54.30
4312;DHT22;2169;49.086;9.284;2023-02-20T14:07:52;14.40;54.30
4312;DHT22;2169;49.086;9.284;2023-02-20T14:10:24;14.40;53.90
4312;DHT22;2169;49.086;9.284;2023-02-20T14:12:57;14.40;53.90
4312;DHT22;2169;49.086;9.284;2023-02-20T14:15:25;14.40;53.40
4312;DHT22;2169;49.086;9.284;2023-02-20T14:17:53;14.40;53.10
4312;DHT22;2169;49.086;9.284;2023-02-20T14:20:23;14.40;52.60
4312;DHT22;2169;49.086;9.284;2023-02-20T14:25:51;14.30;52.50
4312;DHT22;2169;49.086;9.284;2023-02-20T14:28:18;14.30;52.20
4312;DHT22;2169;49.086;9.284;2023-02-20T14:30:45;14.30;52.40
4312;DHT22;2169;49.086;9.284;2023-02-20T14:33:30;14.30;52.40
4312;DHT22;2169;49.086;9.284;2023-02-20T14:36:17;14.30;52.20
4312;DHT22;2169;49.086;9.284;2023-02-20T14:39:01;14.30;52.20
4312;DHT22;2169;49.086;9.284;2023-02-20T14:41:30;14.20;52.20
4312;DHT22;2169;49.086;9.284;2023-02-20T14:43:58;14.20;52.10
4312;DHT22;2169;49.086;9.284;2023-02-20T14:46:28;14.20;52.40
4312;DHT22;2169;49.086;9.284;2023-02-20T14:49:07;14.20;52.30
4312;DHT22;2169;49.086;9.284;2023-02-20T14:51:35;14.20;52.50
4312;DHT22;2169;49.086;9.284;2023-02-20T14:54:15;14.20;52.50
4312;DHT22;2169;49.086;9.284;2023-02-20T14:56:43;14.20;52.40
4312;DHT22;2169;49.086;9.284;2023-02-20T14:59:25;14.20;52.60
4312;DHT22;2169;49.086;9.284;2023-02-20T15:01:54;14.20;52.60
4312;DHT22;2169;49.086;9.284;2023-02-20T15:04:23;14.20;52.60
4312;DHT22;2169;49.086;9.284;2023-02-20T15:06:51;14.20;52.70
4312;DHT22;2169;49.086;9.284;2023-02-20T15:09:19;14.20;52.80
4312;DHT22;2169;49.086;9.284;2023-02-20T15:11:50;14.20;52.90
4312;DHT22;2169;49.086;9.284;2023-02-20T15:14:19;14.20;53.00
4312;DHT22;2169;49.086;9.284;2023-02-20T15:16:47;14.20;53.10
4312;DHT22;2169;49.086;9.284;2023-02-20T15:19:26;14.20;53.10
4312;DHT22;2169;49.086;9.284;2023-02-20T15:21:58;14.20;53.80
4312;DHT22;2169;49.086;9.284;2023-02-20T15:24:34;14.20;53.30
4312;DHT22;2169;49.086;9.284;2023-02-20T15:27:10;14.20;53.20
4312;DHT22;2169;49.086;9.284;2023-02-20T15:29:38;14.20;53.20
4312;DHT22;2169;49.086;9.284;2023-02-20T15:32:13;14.10;53.10
4312;DHT22;2169;49.086;9.284;2023-02-20T15:34:40;14.10;53.10
4312;DHT22;2169;49.086;9.284;2023-02-20T15:37:18;14.10;53.20
4312;DHT22;2169;49.086;9.284;2023-02-20T15:39:45;14.10;53.10
4312;DHT22;2169;49.086;9.284;2023-02-20T15:42:16;14.10;53.30
4312;DHT22;2169;49.086;9.284;2023-02-20T15:44:43;14.00;53.30
4312;DHT22;2169;49.086;9.284;2023-02-20T15:47:10;14.00;53.40
4312;DHT22;2169;49.086;9.284;2023-02-20T15:49:37;14.00;53.40
4312;DHT22;2169;49.086;9.284;2023-02-20T15:52:05;14.00;53.50
4312;DHT22;2169;49.086;9.284;2023-02-20T15:54:32;13.90;53.50
4312;DHT22;2169;49.086;9.284;2023-02-20T15:57:00;13.90;53.60
4312;DHT22;2169;49.086;9.284;2023-02-20T15:59:28;13.90;53.70
4312;DHT22;2169;49.086;9.284;2023-02-20T16:01:55;13.90;53.70
4312;DHT22;2169;49.086;9.284;2023-02-20T16:04:21;13.90;53.70
4312;DHT22;2169;49.086;9.284;2023-02-20T16:06:48;13.80;53.80
4312;DHT22;2169;49.086;9.284;2023-02-20T16:09:15;13.80;54.00
4312;DHT22;2169;49.086;9.284;2023-02-20T16:11:44;13.80;54.00
4312;DHT22;2169;49.086;9.284;2023-02-20T16:14:15;13.80;54.10
4312;DHT22;2169;49.086;9.284;2023-02-20T16:16:46;13.80;54.30
4312;DHT22;2169;49.086;9.284;2023-02-20T16:19:14;13.80;54.30
4312;DHT22;2169;49.086;9.284;2023-02-20T16:21:42;13.80;54.30
4312;DHT22;2169;49.086;9.284;2023-02-20T16:24:09;13.80;54.40
4312;DHT22;2169;49.086;9.284;2023-02-20T16:26:37;13.70;54.40
4312;DHT22;2169;49.086;9.284;2023-02-20T16:29:07;13.70;54.50
4312;DHT22;2169;49.086;9.284;2023-02-20T16:34:40;13.70;54.50
4312;DHT22;2169;49.086;9.284;2023-02-20T16:37:08;13.70;54.60
4312;DHT22;2169;49.086;9.284;2023-02-20T16:39:35;13.70;54.60
4312;DHT22;2169;49.086;9.284;2023-02-20T16:42:15;13.60;54.50
4312;DHT22;2169;49.086;9.284;2023-02-20T16:44:44;13.60;54.60
4312;DHT22;2169;49.086;9.284;2023-02-20T16:47:12;13.60;54.60
4312;DHT22;2169;49.086;9.284;2023-02-20T16:49:40;13.50;54.40
4312;DHT22;2169;49.086;9.284;2023-02-20T16:52:12;13.40;54.40